sensor_id;sensor_type;location;lat;lon;timestamp;pressure;altitude;pressure_sealevel;temperature;humidity
64544;BME280;50936;51.660;5.616;2022-11-20T00:01:27;100953.97;;;-3.06;100.00
64544;BME280;50936;51.660;5.616;2022-11-20T00:03:57;100942.53;;;-3.05;100.00
64544;BME280;50936;51.660;5.616;2022-11-20T00:06:25;100941.69;;;-3.07;100.00
64544;BME280;50936;51.660;5.616;2022-11-20T00:08:55;100939.94;;;-3.12;100.00
64544;BME280;50936;51.660;5.616;2022-11-20T00:11:25;100941.72;;;-3.14;100.00
64544;BME280;50936;51.660;5.616;2022-11-20T00:13:55;100937.38;;;-3.18;100.00
64544;BME280;50936;51.660;5.616;2022-11-20T00:16:26;100942.69;;;-3.19;100.00
64544;BME280;50936;51.660;5.616;2022-11-20T00:18:54;100948.81;;;-3.19;100.00
64544;BME280;50936;51.660;5.616;2022-11-20T00:21:23;100936.53;;;-3.20;100.00
64544;BME280;50936;51.660;5.616;2022-11-20T00:23:54;100933.03;;;-3.22;100.00
64544;BME280;50936;51.660;5.616;2022-11-20T00:26:23;100926.03;;;-3.26;100.00
64544;BME280;50936;51.660;5.616;2022-11-20T00:28:55;100936.63;;;-3.29;100.00
64544;BME280;50936;51.660;5.616;2022-11-20T00:31:23;100934.88;;;-3.30;100.00
64544;BME280;50936;51.660;5.616;2022-11-20T00:33:52;100938.44;;;-3.34;100.00
64544;BME280;50936;51.660;5.616;2022-11-20T00:36:23;100925.25;;;-3.36;100.00
64544;BME280;50936;51.660;5.616;2022-11-20T00:38:53;100922.63;;;-3.37;100.00
64544;BME280;50936;51.660;5.616;2022-11-20T00:41:21;100924.41;;;-3.39;100.00
64544;BME280;50936;51.660;5.616;2022-11-20T00:43:49;100916.50;;;-3.41;100.00
64544;BME280;50936;51.660;5.616;2022-11-20T00:46:19;100922.69;;;-3.43;100.00
64544;BME280;50936;51.660;5.616;2022-11-20T00:48:48;100932.41;;;-3.45;100.00
64544;BME280;50936;51.660;5.616;2022-11-20T00:51:17;100923.56;;;-3.44;100.00
64544;BME280;50936;51.660;5.616;2022-11-20T00:53:46;100927.13;;;-3.44;100.00
64544;BME280;50936;51.660;5.616;2022-11-20T00:56:16;100928.00;;;-3.46;100.00
64544;BME280;50936;51.660;5.616;2022-11-20T00:58:46;100921.88;;;-3.49;100.00
64544;BME280;50936;51.660;5.616;2022-11-20T01:01:25;100918.34;;;-3.49;100.00
64544;BME280;50936;51.660;5.616;2022-11-20T01:03:54;100912.22;;;-3.50;100.00
64544;BME280;50936;51.660;5.616;2022-11-20T01:06:24;100906.94;;;-3.53;100.00
64544;BME280;50936;51.660;5.616;2022-11-20T01:08:57;100905.19;;;-3.54;100.00
64544;BME280;50936;51.660;5.616;2022-11-20T01:11:27;100903.47;;;-3.55;100.00
64544;BME280;50936;51.660;5.616;2022-11-20T01:13:57;100912.25;;;-3.56;100.00
64544;BME280;50936;51.660;5.616;2022-11-20T01:16:31;100910.47;;;-3.54;100.00
64544;BME280;50936;51.660;5.616;2022-11-20T01:19:05;100906.97;;;-3.56;100.00
64544;BME280;50936;51.660;5.616;2022-11-20T01:21:39;100902.53;;;-3.54;100.00
64544;BME280;50936;51.660;5.616;2022-11-20T01:24:10;100906.09;;;-3.53;100.00
64544;BME280;50936;51.660;5.616;2022-11-20T01:26:40;100909.59;;;-3.53;100.00
64544;BME280;50936;51.660;5.616;2022-11-20T01:29:20;100913.09;;;-3.52;100.00
64544;BME280;50936;51.660;5.616;2022-11-20T01:31:50;100908.75;;;-3.55;100.00
64544;BME280;50936;51.660;5.616;2022-11-20T01:34:20;100917.38;;;-3.39;100.00
64544;BME280;50936;51.660;5.616;2022-11-20T01:36:49;100920.78;;;-3.29;100.00
64544;BME280;50936;51.660;5.616;2022-11-20T01:39:20;100918.13;;;-3.29;100.00
64544;BME280;50936;51.660;5.616;2022-11-20T01:41:52;100917.22;;;-3.25;100.00
64544;BME280;50936;51.660;5.616;2022-11-20T01:44:54;100918.13;;;-3.29;100.00
64544;BME280;50936;51.660;5.616;2022-11-20T01:47:37;100920.81;;;-3.34;100.00
64544;BME280;50936;51.660;5.616;2022-11-20T01:50:17;100910.31;;;-3.38;100.00
64544;BME280;50936;51.660;5.616;2022-11-20T01:53:00;100913.84;;;-3.39;100.00
64544;BME280;50936;51.660;5.616;2022-11-20T01:55:35;100912.91;;;-3.35;100.00
64544;BME280;50936;51.660;5.616;2022-11-20T01:58:06;100912.06;;;-3.37;100.00
64544;BME280;50936;51.660;5.616;2022-11-20T02:00:34;100913.84;;;-3.39;100.00
64544;BME280;50936;51.660;5.616;2022-11-20T02:03:04;100919.97;;;-3.37;100.00
64544;BME280;50936;51.660;5.616;2022-11-20T02:08:27;100915.53;;;-3.32;100.00
64544;BME280;50936;51.660;5.616;2022-11-20T02:10:55;100911.19;;;-3.38;100.00
64544;BME280;50936;51.660;5.616;2022-11-20T02:13:22;100905.06;;;-3.41;100.00
64544;BME280;50936;51.660;5.616;2022-11-20T02:16:21;100912.16;;;-3.45;100.00
64544;BME280;50936;51.660;5.616;2022-11-20T02:18:50;100911.34;;;-3.52;100.00
64544;BME280;50936;51.660;5.616;2022-11-20T02:21:43;100910.47;;;-3.54;100.00
64544;BME280;50936;51.660;5.616;2022-11-20T02:24:35;100910.53;;;-3.57;100.00
64544;BME280;50936;51.660;5.616;2022-11-20T02:27:06;100907.03;;;-3.62;100.00
64544;BME280;50936;51.660;5.616;2022-11-20T02:30:05;100904.44;;;-3.67;100.00
64544;BME280;50936;51.660;5.616;2022-11-20T02:32:37;100895.66;;;-3.70;100.00
64544;BME280;50936;51.660;5.616;2022-11-20T02:35:39;100894.88;;;-3.75;100.00
64544;BME280;50936;51.660;5.616;2022-11-20T02:37:59;100887.81;;;-3.76;100.00
64544;BME280;50936;51.660;5.616;2022-11-20T02:40:29;100898.38;;;-3.76;100.00
64544;BME280;50936;51.660;5.616;2022-11-20T02:42:56;100884.31;;;-3.78;100.00
64544;BME280;50936;51.660;5.616;2022-11-20T02:45:24;100885.25;;;-3.81;100.00
64544;BME280;50936;51.660;5.616;2022-11-20T02:47:51;100886.13;;;-3.83;100.00
64544;BME280;50936;51.660;5.616;2022-11-20T02:50:19;100893.19;;;-3.84;100.00
64544;BME280;50936;51.660;5.616;2022-11-20T02:52:46;100897.63;;;-3.88;100.00
64544;BME280;50936;51.660;5.616;2022-11-20T02:55:13;100900.28;;;-3.91;100.00
64544;BME280;50936;51.660;5.616;2022-11-20T02:57:40;100901.19;;;-3.93;100.00
64544;BME280;50936;51.660;5.616;2022-11-20T03:00:07;100903.84;;;-3.95;100.00
64544;BME280;50936;51.660;5.616;2022-11-20T03:02:35;100900.34;;;-3.97;100.00
64544;BME280;50936;51.660;5.616;2022-11-20T03:05:02;100903.91;;;-4.01;100.00
64544;BME280;50936;51.660;5.616;2022-11-20T03:07:29;100903.91;;;-4.01;100.00
64544;BME280;50936;51.660;5.616;2022-11-20T03:09:56;100895.09;;;-4.03;100.00
64544;BME280;50936;51.660;5.616;2022-11-20T03:12:23;100888.97;;;-4.05;100.00
64544;BME280;50936;51.660;5.616;2022-11-20T03:14:49;100888.09;;;-4.07;100.00
64544;BME280;50936;51.660;5.616;2022-11-20T03:17:19;100889.88;;;-4.09;100.00
64544;BME280;50936;51.660;5.616;2022-11-20T03:19:46;100891.66;;;-4.13;100.00
64544;BME280;50936;51.660;5.616;2022-11-20T03:22:13;100888.16;;;-4.13;100.00
64544;BME280;50936;51.660;5.616;2022-11-20T03:24:40;100889.94;;;-4.15;100.00
64544;BME280;50936;51.660;5.616;2022-11-20T03:27:06;100887.31;;;-4.17;100.00
64544;BME280;50936;51.660;5.616;2022-11-20T03:29:35;100877.63;;;-4.16;100.00
64544;BME280;50936;51.660;5.616;2022-11-20T03:32:02;100879.41;;;-4.15;100.00
64544;BME280;50936;51.660;5.616;2022-11-20T03:34:28;100878.50;;;-4.16;100.00
64544;BME280;50936;51.660;5.616;2022-11-20T03:36:55;100872.41;;;-4.19;100.00
64544;BME280;50936;51.660;5.616;2022-11-20T03:39:22;100870.63;;;-4.20;100.00
64544;BME280;50936;51.660;5.616;2022-11-20T03:41:49;100867.16;;;-4.22;100.00
64544;BME280;50936;51.660;5.616;2022-11-20T03:44:16;100859.22;;;-4.22;100.00
64544;BME280;50936;51.660;5.616;2022-11-20T03:46:43;100864.50;;;-4.24;100.00
64544;BME280;50936;51.660;5.616;2022-11-20T03:49:10;100868.91;;;-4.24;100.00
64544;BME280;50936;51.660;5.616;2022-11-20T03:51:36;100864.53;;;-4.26;100.00
64544;BME280;50936;51.660;5.616;2022-11-20T03:54:06;100859.25;;;-4.27;100.00
64544;BME280;50936;51.660;5.616;2022-11-20T03:56:37;100848.72;;;-4.29;100.00
64544;BME280;50936;51.660;5.616;2022-11-20T03:59:05;100843.47;;;-4.32;100.00
64544;BME280;50936;51.660;5.616;2022-11-20T04:01:34;100840.88;;;-4.35;100.00
64544;BME280;50936;51.660;5.616;2022-11-20T04:04:04;100838.25;;;-4.36;100.00
64544;BME280;50936;51.660;5.616;2022-11-20T04:06:35;100835.59;;;-4.38;100.00
64544;BME280;50936;51.660;5.616;2022-11-20T04:09:03;100836.50;;;-4.37;100.00
64544;BME280;50936;51.660;5.616;2022-11-20T04:11:33;100830.34;;;-4.38;100.00
64544;BME280;50936;51.660;5.616;2022-11-20T04:14:04;100837.38;;;-4.37;100.00
64544;BME280;50936;51.660;5.616;2022-11-20T04:16:34;100837.38;;;-4.37;100.00
64544;BME280;50936;51.660;5.616;2022-11-20T04:19:04;100841.72;;;-4.30;100.00
64544;BME280;50936;51.660;5.616;2022-11-20T04:21:32;100837.22;;;-4.18;100.00
64544;BME280;50936;51.660;5.616;2022-11-20T04:23:59;100833.59;;;-4.08;100.00
64544;BME280;50936;51.660;5.616;2022-11-20T04:26:28;100838.88;;;-4.08;100.00
64544;BME280;50936;51.660;5.616;2022-11-20T04:28:56;100837.13;;;-4.09;100.00
64544;BME280;50936;51.660;5.616;2022-11-20T04:31:26;100840.69;;;-4.13;100.00
64544;BME280;50936;51.660;5.616;2022-11-20T04:34:01;100836.34;;;-4.19;100.00
64544;BME280;50936;51.660;5.616;2022-11-20T04:36:30;100839.91;;;-4.26;100.00
64544;BME280;50936;51.660;5.616;2022-11-20T04:39:01;100835.59;;;-4.35;100.00
64544;BME280;50936;51.660;5.616;2022-11-20T04:41:33;100835.66;;;-4.41;100.00
64544;BME280;50936;51.660;5.616;2022-11-20T04:44:03;100840.94;;;-4.44;100.00
64544;BME280;50936;51.660;5.616;2022-11-20T04:46:36;100834.81;;;-4.46;100.00
64544;BME280;50936;51.660;5.616;2022-11-20T04:49:08;100835.69;;;-4.47;100.00
64544;BME280;50936;51.660;5.616;2022-11-20T04:51:35;100833.94;;;-4.48;100.00
64544;BME280;50936;51.660;5.616;2022-11-20T04:54:02;100826.91;;;-4.49;100.00
64544;BME280;50936;51.660;5.616;2022-11-20T04:56:29;100826.91;;;-4.49;100.00
64544;BME280;50936;51.660;5.616;2022-11-20T04:59:00;100826.91;;;-4.51;100.00
64544;BME280;50936;51.660;5.616;2022-11-20T05:01:28;100825.19;;;-4.53;100.00
64544;BME280;50936;51.660;5.616;2022-11-20T05:03:55;100828.69;;;-4.54;100.00
64544;BME280;50936;51.660;5.616;2022-11-20T05:06:22;100835.75;;;-4.56;100.00
64544;BME280;50936;51.660;5.616;2022-11-20T05:08:49;100830.53;;;-4.59;100.00
64544;BME280;50936;51.660;5.616;2022-11-20T05:11:19;100823.50;;;-4.60;100.00
64544;BME280;50936;51.660;5.616;2022-11-20T05:13:47;100826.13;;;-4.62;100.00
64544;BME280;50936;51.660;5.616;2022-11-20T05:16:20;100819.13;;;-4.63;100.00
64544;BME280;50936;51.660;5.616;2022-11-20T05:18:52;100817.38;;;-4.62;100.00
64544;BME280;50936;51.660;5.616;2022-11-20T05:21:21;100816.50;;;-4.61;100.00
64544;BME280;50936;51.660;5.616;2022-11-20T05:23:48;100799.78;;;-4.60;100.00
64544;BME280;50936;51.660;5.616;2022-11-20T05:26:20;100800.63;;;-4.58;100.00
64544;BME280;50936;51.660;5.616;2022-11-20T05:28:48;100807.63;;;-4.54;100.00
64544;BME280;50936;51.660;5.616;2022-11-20T05:31:18;100803.19;;;-4.51;100.00
64544;BME280;50936;51.660;5.616;2022-11-20T05:33:55;100811.09;;;-4.46;100.00
64544;BME280;50936;51.660;5.616;2022-11-20T05:36:23;100811.00;;;-4.40;100.00
64544;BME280;50936;51.660;5.616;2022-11-20T05:38:50;100805.72;;;-4.34;100.00
64544;BME280;50936;51.660;5.616;2022-11-20T05:41:23;100796.88;;;-4.30;100.00
64544;BME280;50936;51.660;5.616;2022-11-20T05:43:51;100791.59;;;-4.27;100.00
64544;BME280;50936;51.660;5.616;2022-11-20T05:46:20;100791.53;;;-4.23;100.00
64544;BME280;50936;51.660;5.616;2022-11-20T05:48:53;100792.38;;;-4.21;100.00
64544;BME280;50936;51.660;5.616;2022-11-20T05:51:22;100798.50;;;-4.16;100.00
64544;BME280;50936;51.660;5.616;2022-11-20T05:53:49;100802.81;;;-4.09;100.00
64544;BME280;50936;51.660;5.616;2022-11-20T05:56:18;100805.44;;;-4.06;100.00
64544;BME280;50936;51.660;5.616;2022-11-20T05:58:46;100815.94;;;-4.00;100.00
64544;BME280;50936;51.660;5.616;2022-11-20T06:01:22;100810.59;;;-3.94;100.00
64544;BME280;50936;51.660;5.616;2022-11-20T06:03:50;100819.31;;;-3.89;100.00
64544;BME280;50936;51.660;5.616;2022-11-20T06:06:19;100822.72;;;-3.77;100.00
64544;BME280;50936;51.660;5.616;2022-11-20T06:08:47;100826.13;;;-3.66;100.00
64544;BME280;50936;51.660;5.616;2022-11-20T06:11:16;100827.81;;;-3.59;100.00
64544;BME280;50936;51.660;5.616;2022-11-20T06:13:44;100820.75;;;-3.57;100.00
64544;BME280;50936;51.660;5.616;2022-11-20T06:16:14;100833.03;;;-3.56;100.00
64544;BME280;50936;51.660;5.616;2022-11-20T06:18:42;100833.00;;;-3.50;100.00
64544;BME280;50936;51.660;5.616;2022-11-20T06:21:17;100822.47;;;-3.53;100.00
64544;BME280;50936;51.660;5.616;2022-11-20T06:23:46;100829.41;;;-3.45;100.00
64544;BME280;50936;51.660;5.616;2022-11-20T06:26:19;100830.16;;;-3.36;100.00
64544;BME280;50936;51.660;5.616;2022-11-20T06:28:48;100832.72;;;-3.28;100.00
64544;BME280;50936;51.660;5.616;2022-11-20T06:31:17;100834.50;;;-3.30;100.00
64544;BME280;50936;51.660;5.616;2022-11-20T06:33:46;100836.31;;;-3.35;100.00
64544;BME280;50936;51.660;5.616;2022-11-20T06:36:15;100824.03;;;-3.36;100.00
64544;BME280;50936;51.660;5.616;2022-11-20T06:38:44;100817.06;;;-3.42;100.00
64544;BME280;50936;51.660;5.616;2022-11-20T06:41:16;100822.34;;;-3.43;100.00
64544;BME280;50936;51.660;5.616;2022-11-20T06:43:45;100812.63;;;-3.40;100.00
64544;BME280;50936;51.660;5.616;2022-11-20T06:46:15;100818.81;;;-3.42;100.00
64544;BME280;50936;51.660;5.616;2022-11-20T06:48:47;100820.56;;;-3.41;100.00
64544;BME280;50936;51.660;5.616;2022-11-20T06:51:15;100817.03;;;-3.40;100.00
64544;BME280;50936;51.660;5.616;2022-11-20T06:53:42;100813.53;;;-3.42;100.00
64544;BME280;50936;51.660;5.616;2022-11-20T06:56:09;100813.56;;;-3.45;100.00
64544;BME280;50936;51.660;5.616;2022-11-20T06:58:36;100815.38;;;-3.47;100.00
64544;BME280;50936;51.660;5.616;2022-11-20T07:01:09;100811.88;;;-3.50;100.00
64544;BME280;50936;51.660;5.616;2022-11-20T07:03:39;100811.91;;;-3.53;100.00
64544;BME280;50936;51.660;5.616;2022-11-20T07:06:06;100804.84;;;-3.54;100.00
64544;BME280;50936;51.660;5.616;2022-11-20T07:08:34;100818.03;;;-3.51;100.00
64544;BME280;50936;51.660;5.616;2022-11-20T07:11:03;100813.56;;;-3.45;100.00
64544;BME280;50936;51.660;5.616;2022-11-20T07:13:32;100816.09;;;-3.35;100.00
64544;BME280;50936;51.660;5.616;2022-11-20T07:16:01;100801.94;;;-3.31;100.00
64544;BME280;50936;51.660;5.616;2022-11-20T07:18:30;100799.25;;;-3.26;100.00
64544;BME280;50936;51.660;5.616;2022-11-20T07:21:01;100799.19;;;-3.23;100.00
64544;BME280;50936;51.660;5.616;2022-11-20T07:23:29;100796.50;;;-3.18;100.00
64544;BME280;50936;51.660;5.616;2022-11-20T07:25:56;100804.34;;;-3.14;100.00
64544;BME280;50936;51.660;5.616;2022-11-20T07:28:23;100803.44;;;-3.11;100.00
64544;BME280;50936;51.660;5.616;2022-11-20T07:30:51;100806.00;;;-3.06;100.00
64544;BME280;50936;51.660;5.616;2022-11-20T07:33:19;100809.50;;;-3.04;100.00
64544;BME280;50936;51.660;5.616;2022-11-20T07:35:47;100807.66;;;-2.99;100.00
64544;BME280;50936;51.660;5.616;2022-11-20T07:38:13;100803.13;;;-2.90;100.00
64544;BME280;50936;51.660;5.616;2022-11-20T07:40:40;100804.75;;;-2.79;100.00
64544;BME280;50936;51.660;5.616;2022-11-20T07:43:07;100808.09;;;-2.69;100.00
64544;BME280;50936;51.660;5.616;2022-11-20T07:45:34;100806.25;;;-2.63;100.00
64544;BME280;50936;51.660;5.616;2022-11-20T07:48:01;100808.75;;;-2.55;100.00
64544;BME280;50936;51.660;5.616;2022-11-20T07:50:28;100806.00;;;-2.47;100.00
64544;BME280;50936;51.660;5.616;2022-11-20T07:53:05;100801.44;;;-2.38;100.00
64544;BME280;50936;51.660;5.616;2022-11-20T07:55:32;100800.44;;;-2.30;100.00
64544;BME280;50936;51.660;5.616;2022-11-20T07:57:59;100810.03;;;-2.25;100.00
64544;BME280;50936;51.660;5.616;2022-11-20T08:00:26;100812.56;;;-2.17;100.00
64544;BME280;50936;51.660;5.616;2022-11-20T08:02:54;100809.78;;;-2.11;100.00
64544;BME280;50936;51.660;5.616;2022-11-20T08:05:21;100809.75;;;-2.08;100.00
64544;BME280;50936;51.660;5.616;2022-11-20T08:07:48;100812.25;;;-2.02;100.00
64544;BME280;50936;51.660;5.616;2022-11-20T08:10:16;100809.53;;;-1.96;100.00
64544;BME280;50936;51.660;5.616;2022-11-20T08:12:47;100807.69;;;-1.90;100.00
64544;BME280;50936;51.660;5.616;2022-11-20T08:15:35;100805.75;;;-1.82;100.00
64544;BME280;50936;51.660;5.616;2022-11-20T08:18:10;100799.44;;;-1.75;100.00
64544;BME280;50936;51.660;5.616;2022-11-20T08:20:57;100796.59;;;-1.66;100.00
64544;BME280;50936;51.660;5.616;2022-11-20T08:23:28;100796.38;;;-1.55;100.00
64544;BME280;50936;51.660;5.616;2022-11-20T08:25:54;100787.38;;;-1.46;100.00
64544;BME280;50936;51.660;5.616;2022-11-20T08:28:21;100795.19;;;-1.40;100.00
64544;BME280;50936;51.660;5.616;2022-11-20T08:30:49;100795.88;;;-1.32;100.00
64544;BME280;50936;51.660;5.616;2022-11-20T08:33:17;100795.72;;;-1.23;100.00
64544;BME280;50936;51.660;5.616;2022-11-20T08:35:45;100796.34;;;-1.11;100.00
64544;BME280;50936;51.660;5.616;2022-11-20T08:38:11;100789.09;;;-1.03;100.00
64544;BME280;50936;51.660;5.616;2022-11-20T08:40:38;100795.16;;;-0.98;100.00
64544;BME280;50936;51.660;5.616;2022-11-20T08:43:05;100789.81;;;-0.95;100.00
64544;BME280;50936;51.660;5.616;2022-11-20T08:45:32;100793.25;;;-0.91;100.00
64544;BME280;50936;51.660;5.616;2022-11-20T08:48:02;100782.47;;;-0.84;100.00
64544;BME280;50936;51.660;5.616;2022-11-20T08:50:30;100786.69;;;-0.75;100.00
64544;BME280;50936;51.660;5.616;2022-11-20T08:53:06;100794.38;;;-0.64;100.00
64544;BME280;50936;51.660;5.616;2022-11-20T08:55:33;100799.41;;;-0.53;100.00
64544;BME280;50936;51.660;5.616;2022-11-20T08:58:06;100785.13;;;-0.48;100.00
64544;BME280;50936;51.660;5.616;2022-11-20T09:00:33;100792.09;;;-0.42;100.00
64544;BME280;50936;51.660;5.616;2022-11-20T09:03:01;100783.91;;;-0.33;100.00
64544;BME280;50936;51.660;5.616;2022-11-20T09:05:28;100783.75;;;-0.28;100.00
64544;BME280;50936;51.660;5.616;2022-11-20T09:07:58;100775.69;;;-0.24;100.00
64544;BME280;50936;51.660;5.616;2022-11-20T09:10:27;100777.38;;;-0.21;100.00
64544;BME280;50936;51.660;5.616;2022-11-20T09:12:54;100766.69;;;-0.18;100.00
64544;BME280;50936;51.660;5.616;2022-11-20T09:15:22;100766.59;;;-0.15;100.00
64544;BME280;50936;51.660;5.616;2022-11-20T09:18:01;100766.50;;;-0.10;100.00
64544;BME280;50936;51.660;5.616;2022-11-20T09:20:31;100777.63;;;0.04;100.00
64544;BME280;50936;51.660;5.616;2022-11-20T09:22:58;100770.25;;;0.14;100.00
64544;BME280;50936;51.660;5.616;2022-11-20T09:25:25;100769.25;;;0.18;100.00
64544;BME280;50936;51.660;5.616;2022-11-20T09:27:55;100770.94;;;0.22;100.00
64544;BME280;50936;51.660;5.616;2022-11-20T09:30:23;100772.47;;;0.29;100.00
64544;BME280;50936;51.660;5.616;2022-11-20T09:32:50;100770.50;;;0.37;100.00
64544;BME280;50936;51.660;5.616;2022-11-20T09:35:17;100761.63;;;0.38;100.00
64544;BME280;50936;51.660;5.616;2022-11-20T09:37:45;100750.81;;;0.45;100.00
64544;BME280;50936;51.660;5.616;2022-11-20T09:40:23;100751.63;;;0.47;100.00
64544;BME280;50936;51.660;5.616;2022-11-20T09:45:54;100745.28;;;0.51;100.00
64544;BME280;50936;51.660;5.616;2022-11-20T09:48:56;100745.03;;;0.60;100.00
64544;BME280;50936;51.660;5.616;2022-11-20T09:51:36;100748.69;;;0.56;100.00
64544;BME280;50936;51.660;5.616;2022-11-20T09:56:49;100752.84;;;0.66;100.00
64544;BME280;50936;51.660;5.616;2022-11-20T09:59:41;100753.66;;;0.68;100.00
64544;BME280;50936;51.660;5.616;2022-11-20T10:02:29;100749.06;;;0.73;100.00
64544;BME280;50936;51.660;5.616;2022-11-20T10:05:12;100742.81;;;0.74;100.00
64544;BME280;50936;51.660;5.616;2022-11-20T10:07:53;100740.69;;;0.86;100.00
64544;BME280;50936;51.660;5.616;2022-11-20T10:10:54;100740.56;;;0.90;100.00
64544;BME280;50936;51.660;5.616;2022-11-20T10:16:44;100727.94;;;0.97;100.00
64544;BME280;50936;51.660;5.616;2022-11-20T10:25:21;100712.72;;;1.02;100.00
64544;BME280;50936;51.660;5.616;2022-11-20T10:31:08;100690.44;;;1.06;100.00
64544;BME280;50936;51.660;5.616;2022-11-20T10:33:42;100683.28;;;1.08;100.00
64544;BME280;50936;51.660;5.616;2022-11-20T10:36:41;100674.34;;;1.09;100.00
64544;BME280;50936;51.660;5.616;2022-11-20T10:39:28;100664.66;;;1.08;100.00
64544;BME280;50936;51.660;5.616;2022-11-20T10:42:01;100657.44;;;1.12;100.00
64544;BME280;50936;51.660;5.616;2022-11-20T10:44:29;100654.50;;;1.20;100.00
64544;BME280;50936;51.660;5.616;2022-11-20T10:47:21;100655.06;;;1.29;100.00
64544;BME280;50936;51.660;5.616;2022-11-20T10:49:52;100643.34;;;1.35;100.00
64544;BME280;50936;51.660;5.616;2022-11-20T10:55:24;100617.22;;;1.46;100.00
64544;BME280;50936;51.660;5.616;2022-11-20T10:58:17;100616.22;;;1.50;100.00
64544;BME280;50936;51.660;5.616;2022-11-20T11:01:19;100616.69;;;1.62;100.00
64544;BME280;50936;51.660;5.616;2022-11-20T11:03:51;100617.25;;;1.70;100.00
64544;BME280;50936;51.660;5.616;2022-11-20T11:06:21;100608.06;;;1.79;100.00
64544;BME280;50936;51.660;5.616;2022-11-20T11:08:59;100606.06;;;1.85;100.00
64544;BME280;50936;51.660;5.616;2022-11-20T11:11:32;100592.56;;;1.90;100.00
64544;BME280;50936;51.660;5.616;2022-11-20T11:14:11;100595.81;;;1.98;100.00
64544;BME280;50936;51.660;5.616;2022-11-20T11:16:50;100590.13;;;2.07;100.00
64544;BME280;50936;51.660;5.616;2022-11-20T11:19:22;100582.84;;;2.13;100.00
64544;BME280;50936;51.660;5.616;2022-11-20T11:21:52;100578.22;;;2.16;100.00
64544;BME280;50936;51.660;5.616;2022-11-20T11:24:22;100583.56;;;2.16;100.00
64544;BME280;50936;51.660;5.616;2022-11-20T11:27:13;100575.47;;;2.19;100.00
64544;BME280;50936;51.660;5.616;2022-11-20T11:29:44;100586.94;;;2.21;100.00
64544;BME280;50936;51.660;5.616;2022-11-20T11:32:18;100580.69;;;2.22;100.00
64544;BME280;50936;51.660;5.616;2022-11-20T11:37:38;100579.88;;;2.20;100.00
64544;BME280;50936;51.660;5.616;2022-11-20T11:40:08;100578.06;;;2.21;100.00
64544;BME280;50936;51.660;5.616;2022-11-20T11:42:56;100576.41;;;2.18;100.00
64544;BME280;50936;51.660;5.616;2022-11-20T11:45:26;100576.28;;;2.21;100.00
64544;BME280;50936;51.660;5.616;2022-11-20T11:47:56;100573.66;;;2.20;100.00
64544;BME280;50936;51.660;5.616;2022-11-20T11:50:28;100569.31;;;2.17;100.00
64544;BME280;50936;51.660;5.616;2022-11-20T11:53:17;100572.09;;;2.14;100.00
64544;BME280;50936;51.660;5.616;2022-11-20T11:56:08;100572.25;;;2.11;100.00
64544;BME280;50936;51.660;5.616;2022-11-20T11:58:46;100562.59;;;2.07;100.00
64544;BME280;50936;51.660;5.616;2022-11-20T12:04:17;100544.25;;;1.99;100.00
64544;BME280;50936;51.660;5.616;2022-11-20T12:07:04;100538.13;;;1.97;100.00
64544;BME280;50936;51.660;5.616;2022-11-20T12:10:00;100531.00;;;1.98;100.00
64544;BME280;50936;51.660;5.616;2022-11-20T12:12:32;100517.56;;;2.01;100.00
64544;BME280;50936;51.660;5.616;2022-11-20T12:15:11;100511.34;;;2.02;100.00
64544;BME280;50936;51.660;5.616;2022-11-20T12:17:43;100504.16;;;2.04;100.00
64544;BME280;50936;51.660;5.616;2022-11-20T12:20:13;100497.81;;;2.06;100.00
64544;BME280;50936;51.660;5.616;2022-11-20T12:25:56;100481.72;;;2.09;100.00
64544;BME280;50936;51.660;5.616;2022-11-20T12:57:24;100435.72;;;2.26;100.00
64544;BME280;50936;51.660;5.616;2022-11-20T13:00:19;100427.56;;;2.31;100.00
64544;BME280;50936;51.660;5.616;2022-11-20T13:03:09;100413.16;;;2.35;100.00
64544;BME280;50936;51.660;5.616;2022-11-20T13:06:15;100403.13;;;2.42;100.00
64544;BME280;50936;51.660;5.616;2022-11-20T13:08:53;100404.16;;;2.58;100.00
64544;BME280;50936;51.660;5.616;2022-11-20T13:11:34;100395.84;;;2.66;100.00
64544;BME280;50936;51.660;5.616;2022-11-20T13:14:20;100397.09;;;2.78;100.00
64544;BME280;50936;51.660;5.616;2022-11-20T13:16:58;100385.22;;;2.85;100.00
64544;BME280;50936;51.660;5.616;2022-11-20T13:19:33;100386.75;;;2.91;100.00
64544;BME280;50936;51.660;5.616;2022-11-20T13:22:00;100379.47;;;2.94;100.00
64544;BME280;50936;51.660;5.616;2022-11-20T13:24:31;100373.13;;;2.97;100.00
64544;BME280;50936;51.660;5.616;2022-11-20T13:29:29;100348.91;;;3.01;100.00
64544;BME280;50936;51.660;5.616;2022-11-20T13:32:18;100351.94;;;2.94;100.00
64544;BME280;50936;51.660;5.616;2022-11-20T13:35:04;100347.59;;;2.91;100.00
64544;BME280;50936;51.660;5.616;2022-11-20T13:37:38;100344.13;;;2.89;100.00
64544;BME280;50936;51.660;5.616;2022-11-20T13:42:39;100335.19;;;2.90;100.00
64544;BME280;50936;51.660;5.616;2022-11-20T13:45:25;100324.31;;;2.95;100.00
64544;BME280;50936;51.660;5.616;2022-11-20T13:47:55;100312.78;;;2.94;100.00
64544;BME280;50936;51.660;5.616;2022-11-20T13:50:42;100311.75;;;2.97;100.00
64544;BME280;50936;51.660;5.616;2022-11-20T13:53:41;100302.91;;;2.96;100.00
64544;BME280;50936;51.660;5.616;2022-11-20T13:56:43;100302.25;;;2.91;100.00
64544;BME280;50936;51.660;5.616;2022-11-20T13:59:35;100303.84;;;2.95;100.00
64544;BME280;50936;51.660;5.616;2022-11-20T14:02:13;100294.16;;;2.93;100.00
64544;BME280;50936;51.660;5.616;2022-11-20T14:04:45;100292.38;;;2.93;100.00
64544;BME280;50936;51.660;5.616;2022-11-20T14:07:20;100298.53;;;2.95;100.00
64544;BME280;50936;51.660;5.616;2022-11-20T14:09:55;100289.56;;;2.96;100.00
64544;BME280;50936;51.660;5.616;2022-11-20T14:12:29;100287.84;;;2.95;100.00
64544;BME280;50936;51.660;5.616;2022-11-20T14:14:58;100286.88;;;2.96;100.00
64544;BME280;50936;51.660;5.616;2022-11-20T14:17:33;100286.03;;;2.96;100.00